sensor_id;sensor_type;location;lat;lon;timestamp;pressure;altitude;pressure_sealevel;temperature;humidity
74627;BME280;63132;52.268;5.192;2023-09-07T00:01:22;101835.72;;;25.22;55.61
74627;BME280;63132;52.268;5.192;2023-09-07T00:03:47;101835.09;;;25.27;54.39
74627;BME280;63132;52.268;5.192;2023-09-07T00:06:13;101829.13;;;25.40;54.57
74627;BME280;63132;52.268;5.192;2023-09-07T00:08:38;101820.50;;;25.82;53.64
74627;BME280;63132;52.268;5.192;2023-09-07T00:11:08;101818.34;;;26.07;52.29
74627;BME280;63132;52.268;5.192;2023-09-07T00:13:34;101815.22;;;26.19;51.92
74627;BME280;63132;52.268;5.192;2023-09-07T00:16:01;101808.25;;;26.35;51.34
74627;BME280;63132;52.268;5.192;2023-09-07T00:18:28;101808.75;;;26.34;51.16
74627;BME280;63132;52.268;5.192;2023-09-07T00:20:53;101803.69;;;26.38;51.23
74627;BME280;63132;52.268;5.192;2023-09-07T00:23:19;101810.22;;;26.00;52.29
74627;BME280;63132;52.268;5.192;2023-09-07T00:25:45;101819.34;;;26.04;51.76
74627;BME280;63132;52.268;5.192;2023-09-07T00:28:11;101811.72;;;26.25;51.43
74627;BME280;63132;52.268;5.192;2023-09-07T00:30:36;101809.84;;;26.21;51.39
74627;BME280;63132;52.268;5.192;2023-09-07T00:33:02;101805.44;;;26.35;51.43
74627;BME280;63132;52.268;5.192;2023-09-07T00:35:27;101803.22;;;26.39;51.24
74627;BME280;63132;52.268;5.192;2023-09-07T00:37:52;101803.19;;;26.25;51.20
74627;BME280;63132;52.268;5.192;2023-09-07T00:40:19;101804.75;;;26.26;51.20
74627;BME280;63132;52.268;5.192;2023-09-07T00:42:44;101801.13;;;26.25;50.99
74627;BME280;63132;52.268;5.192;2023-09-07T00:45:10;101798.19;;;26.19;51.47
74627;BME280;63132;52.268;5.192;2023-09-07T00:47:35;101809.53;;;26.05;51.37
74627;BME280;63132;52.268;5.192;2023-09-07T00:50:04;101805.03;;;26.28;51.14
74627;BME280;63132;52.268;5.192;2023-09-07T00:52:31;101814.44;;;26.04;51.74
74627;BME280;63132;52.268;5.192;2023-09-07T00:54:57;101803.69;;;25.93;51.85
74627;BME280;63132;52.268;5.192;2023-09-07T00:57:24;101794.47;;;26.28;50.78
74627;BME280;63132;52.268;5.192;2023-09-07T00:59:49;101799.75;;;26.20;51.24
74627;BME280;63132;52.268;5.192;2023-09-07T01:02:15;101794.97;;;25.97;52.20
74627;BME280;63132;52.268;5.192;2023-09-07T01:04:40;101796.91;;;26.06;51.17
74627;BME280;63132;52.268;5.192;2023-09-07T01:07:18;101799.28;;;25.68;52.73
74627;BME280;63132;52.268;5.192;2023-09-07T01:09:51;101795.28;;;25.60;52.73
74627;BME280;63132;52.268;5.192;2023-09-07T01:12:17;101797.69;;;25.53;52.96
74627;BME280;63132;52.268;5.192;2023-09-07T01:14:43;101797.81;;;25.58;52.91
74627;BME280;63132;52.268;5.192;2023-09-07T01:17:09;101797.38;;;25.36;53.65
74627;BME280;63132;52.268;5.192;2023-09-07T01:19:36;101797.94;;;25.40;53.30
74627;BME280;63132;52.268;5.192;2023-09-07T01:22:02;101795.69;;;25.29;53.51
74627;BME280;63132;52.268;5.192;2023-09-07T01:24:28;101798.69;;;25.50;53.09
74627;BME280;63132;52.268;5.192;2023-09-07T01:26:56;101804.44;;;25.40;53.46
74627;BME280;63132;52.268;5.192;2023-09-07T01:29:22;101799.13;;;25.33;53.73
74627;BME280;63132;52.268;5.192;2023-09-07T01:31:47;101804.41;;;25.17;53.67
74627;BME280;63132;52.268;5.192;2023-09-07T01:34:13;101796.19;;;25.04;54.19
74627;BME280;63132;52.268;5.192;2023-09-07T01:36:38;101801.47;;;25.11;53.83
74627;BME280;63132;52.268;5.192;2023-09-07T01:39:04;101794.19;;;25.19;53.82
74627;BME280;63132;52.268;5.192;2023-09-07T01:41:31;101797.25;;;25.06;54.07
74627;BME280;63132;52.268;5.192;2023-09-07T01:43:56;101794.75;;;24.99;54.63
74627;BME280;63132;52.268;5.192;2023-09-07T01:46:21;101791.84;;;24.84;55.07
74627;BME280;63132;52.268;5.192;2023-09-07T01:48:47;101795.69;;;25.05;54.20
74627;BME280;63132;52.268;5.192;2023-09-07T01:51:12;101790.06;;;24.96;54.96
74627;BME280;63132;52.268;5.192;2023-09-07T01:53:37;101784.97;;;25.00;54.43
74627;BME280;63132;52.268;5.192;2023-09-07T01:56:03;101793.69;;;24.88;54.92
74627;BME280;63132;52.268;5.192;2023-09-07T01:58:28;101792.25;;;24.92;54.54
74627;BME280;63132;52.268;5.192;2023-09-07T02:00:57;101792.75;;;24.91;54.58
74627;BME280;63132;52.268;5.192;2023-09-07T02:03:23;101794.88;;;24.81;54.97
74627;BME280;63132;52.268;5.192;2023-09-07T02:05:48;101790.50;;;25.04;53.87
74627;BME280;63132;52.268;5.192;2023-09-07T02:08:13;101792.25;;;24.92;53.98
74627;BME280;63132;52.268;5.192;2023-09-07T02:10:39;101793.34;;;24.95;53.83
74627;BME280;63132;52.268;5.192;2023-09-07T02:13:04;101798.06;;;24.98;54.47
74627;BME280;63132;52.268;5.192;2023-09-07T02:15:30;101793.94;;;25.08;54.08
74627;BME280;63132;52.268;5.192;2023-09-07T02:17:55;101793.09;;;24.83;54.95
74627;BME280;63132;52.268;5.192;2023-09-07T02:20:21;101788.22;;;24.84;54.50
74627;BME280;63132;52.268;5.192;2023-09-07T02:22:46;101794.66;;;24.84;54.71
74627;BME280;63132;52.268;5.192;2023-09-07T02:25:12;101794.88;;;24.81;54.64
74627;BME280;63132;52.268;5.192;2023-09-07T02:27:37;101793.81;;;24.69;55.19
74627;BME280;63132;52.268;5.192;2023-09-07T02:30:03;101796.69;;;24.60;55.09
74627;BME280;63132;52.268;5.192;2023-09-07T02:32:31;101795.91;;;24.60;55.23
74627;BME280;63132;52.268;5.192;2023-09-07T02:34:56;101791.94;;;24.66;55.54
74627;BME280;63132;52.268;5.192;2023-09-07T02:37:22;101798.91;;;24.56;55.63
74627;BME280;63132;52.268;5.192;2023-09-07T02:39:48;101792.97;;;24.36;56.33
74627;BME280;63132;52.268;5.192;2023-09-07T02:42:13;101798.63;;;24.45;55.84
74627;BME280;63132;52.268;5.192;2023-09-07T02:44:38;101791.06;;;24.51;55.46
74627;BME280;63132;52.268;5.192;2023-09-07T02:47:04;101794.19;;;24.53;55.62
74627;BME280;63132;52.268;5.192;2023-09-07T02:49:29;101799.56;;;24.51;55.70
74627;BME280;63132;52.268;5.192;2023-09-07T02:51:55;101798.63;;;24.45;55.68
74627;BME280;63132;52.268;5.192;2023-09-07T02:54:20;101794.41;;;24.40;56.05
74627;BME280;63132;52.268;5.192;2023-09-07T02:56:46;101796.16;;;24.38;55.93
74627;BME280;63132;52.268;5.192;2023-09-07T02:59:11;101800.56;;;24.11;56.41
74627;BME280;63132;52.268;5.192;2023-09-07T03:01:38;101801.69;;;24.04;57.02
74627;BME280;63132;52.268;5.192;2023-09-07T03:04:04;101799.06;;;23.92;56.73
74627;BME280;63132;52.268;5.192;2023-09-07T03:06:30;101800.16;;;23.94;57.18
74627;BME280;63132;52.268;5.192;2023-09-07T03:08:55;101793.06;;;23.90;57.61
74627;BME280;63132;52.268;5.192;2023-09-07T03:11:22;101793.31;;;24.28;55.99
74627;BME280;63132;52.268;5.192;2023-09-07T03:13:47;101797.31;;;23.94;57.31
74627;BME280;63132;52.268;5.192;2023-09-07T03:16:12;101794.16;;;24.01;56.95
74627;BME280;63132;52.268;5.192;2023-09-07T03:18:38;101797.22;;;24.31;56.24
74627;BME280;63132;52.268;5.192;2023-09-07T03:21:03;101796.44;;;24.40;55.62
74627;BME280;63132;52.268;5.192;2023-09-07T03:23:30;101794.72;;;24.33;55.78
74627;BME280;63132;52.268;5.192;2023-09-07T03:25:57;101801.63;;;24.41;55.51
74627;BME280;63132;52.268;5.192;2023-09-07T03:28:23;101794.88;;;24.39;55.82
74627;BME280;63132;52.268;5.192;2023-09-07T03:30:48;101804.25;;;24.54;55.13
74627;BME280;63132;52.268;5.192;2023-09-07T03:33:14;101799.09;;;24.43;55.55
74627;BME280;63132;52.268;5.192;2023-09-07T03:35:39;101792.66;;;24.43;55.17
74627;BME280;63132;52.268;5.192;2023-09-07T03:38:06;101792.84;;;24.39;55.60
74627;BME280;63132;52.268;5.192;2023-09-07T03:40:31;101796.16;;;24.28;55.76
74627;BME280;63132;52.268;5.192;2023-09-07T03:42:56;101790.16;;;24.26;55.69
74627;BME280;63132;52.268;5.192;2023-09-07T03:45:22;101785.75;;;24.25;56.05
74627;BME280;63132;52.268;5.192;2023-09-07T03:47:47;101792.22;;;24.26;55.42
74627;BME280;63132;52.268;5.192;2023-09-07T03:50:12;101789.53;;;24.31;55.76
74627;BME280;63132;52.268;5.192;2023-09-07T03:52:38;101786.09;;;24.37;55.73
74627;BME280;63132;52.268;5.192;2023-09-07T03:55:03;101785.41;;;24.42;55.25
74627;BME280;63132;52.268;5.192;2023-09-07T03:57:30;101788.25;;;24.42;54.87
74627;BME280;63132;52.268;5.192;2023-09-07T03:59:56;101789.19;;;24.48;54.66
74627;BME280;63132;52.268;5.192;2023-09-07T04:02:22;101785.41;;;24.51;55.19
74627;BME280;63132;52.268;5.192;2023-09-07T04:04:49;101782.25;;;24.49;55.34
74627;BME280;63132;52.268;5.192;2023-09-07T04:07:14;101788.56;;;24.44;55.29
74627;BME280;63132;52.268;5.192;2023-09-07T04:09:40;101786.38;;;24.39;55.09
74627;BME280;63132;52.268;5.192;2023-09-07T04:12:05;101787.19;;;24.30;55.55
74627;BME280;63132;52.268;5.192;2023-09-07T04:14:31;101787.19;;;24.30;56.04
74627;BME280;63132;52.268;5.192;2023-09-07T04:16:57;101789.63;;;24.55;54.73
74627;BME280;63132;52.268;5.192;2023-09-07T04:19:23;101791.56;;;24.31;55.40
74627;BME280;63132;52.268;5.192;2023-09-07T04:21:48;101789.84;;;24.34;55.43
74627;BME280;63132;52.268;5.192;2023-09-07T04:24:13;101790.16;;;24.45;54.89
74627;BME280;63132;52.268;5.192;2023-09-07T04:26:38;101790.59;;;24.43;54.81
74627;BME280;63132;52.268;5.192;2023-09-07T04:29:06;101781.38;;;24.24;55.24
74627;BME280;63132;52.268;5.192;2023-09-07T04:31:32;101778.69;;;24.21;55.96
74627;BME280;63132;52.268;5.192;2023-09-07T04:33:57;101783.44;;;24.15;55.91
74627;BME280;63132;52.268;5.192;2023-09-07T04:36:22;101793.38;;;24.01;56.71
74627;BME280;63132;52.268;5.192;2023-09-07T04:38:48;101794.97;;;23.84;56.79
74627;BME280;63132;52.268;5.192;2023-09-07T04:41:14;101789.94;;;23.79;56.42
74627;BME280;63132;52.268;5.192;2023-09-07T04:43:41;101793.22;;;23.59;58.09
74627;BME280;63132;52.268;5.192;2023-09-07T04:46:09;101794.03;;;23.78;56.98
74627;BME280;63132;52.268;5.192;2023-09-07T04:48:34;101794.03;;;23.87;56.88
74627;BME280;63132;52.268;5.192;2023-09-07T04:51:09;101802.50;;;23.96;56.26
74627;BME280;63132;52.268;5.192;2023-09-07T04:53:36;101804.41;;;23.81;56.62
74627;BME280;63132;52.268;5.192;2023-09-07T04:56:03;101798.28;;;23.55;57.31
74627;BME280;63132;52.268;5.192;2023-09-07T04:58:30;101795.88;;;23.53;57.65
74627;BME280;63132;52.268;5.192;2023-09-07T05:01:10;101802.22;;;23.66;57.11
74627;BME280;63132;52.268;5.192;2023-09-07T05:03:36;101801.09;;;23.73;56.92
74627;BME280;63132;52.268;5.192;2023-09-07T05:06:03;101802.84;;;23.80;56.89
74627;BME280;63132;52.268;5.192;2023-09-07T05:08:30;101797.50;;;23.72;56.42
74627;BME280;63132;52.268;5.192;2023-09-07T05:10:56;101806.28;;;23.84;56.78
74627;BME280;63132;52.268;5.192;2023-09-07T05:13:22;101812.09;;;23.80;56.90
74627;BME280;63132;52.268;5.192;2023-09-07T05:15:48;101812.09;;;23.80;56.33
74627;BME280;63132;52.268;5.192;2023-09-07T05:18:14;101810.69;;;23.85;56.46
74627;BME280;63132;52.268;5.192;2023-09-07T05:20:39;101811.31;;;23.89;56.63
74627;BME280;63132;52.268;5.192;2023-09-07T05:23:04;101825.75;;;23.91;55.98
74627;BME280;63132;52.268;5.192;2023-09-07T05:25:30;101819.47;;;24.14;55.36
74627;BME280;63132;52.268;5.192;2023-09-07T05:27:55;101819.16;;;23.94;56.30
74627;BME280;63132;52.268;5.192;2023-09-07T05:30:20;101822.91;;;24.09;55.87
74627;BME280;63132;52.268;5.192;2023-09-07T05:32:46;101821.81;;;24.07;55.99
74627;BME280;63132;52.268;5.192;2023-09-07T05:35:11;101823.25;;;23.84;56.90
74627;BME280;63132;52.268;5.192;2023-09-07T05:37:37;101823.84;;;24.06;56.07
74627;BME280;63132;52.268;5.192;2023-09-07T05:40:03;101822.25;;;24.23;55.77
74627;BME280;63132;52.268;5.192;2023-09-07T05:42:29;101831.06;;;24.35;55.26
74627;BME280;63132;52.268;5.192;2023-09-07T05:44:55;101828.06;;;24.38;55.22
74627;BME280;63132;52.268;5.192;2023-09-07T05:47:20;101829.00;;;24.44;54.74
74627;BME280;63132;52.268;5.192;2023-09-07T05:49:45;101831.69;;;24.20;54.71
74627;BME280;63132;52.268;5.192;2023-09-07T05:52:11;101831.50;;;24.51;54.57
74627;BME280;63132;52.268;5.192;2023-09-07T05:54:36;101831.06;;;24.35;55.10
74627;BME280;63132;52.268;5.192;2023-09-07T05:57:01;101833.09;;;24.25;55.67
74627;BME280;63132;52.268;5.192;2023-09-07T05:59:27;101838.91;;;24.40;54.82
74627;BME280;63132;52.268;5.192;2023-09-07T06:01:52;101838.56;;;24.47;54.96
74627;BME280;63132;52.268;5.192;2023-09-07T06:04:17;101831.69;;;24.39;54.96
74627;BME280;63132;52.268;5.192;2023-09-07T06:06:43;101838.47;;;24.04;55.91
74627;BME280;63132;52.268;5.192;2023-09-07T06:09:08;101833.81;;;24.62;54.17
74627;BME280;63132;52.268;5.192;2023-09-07T06:11:33;101835.81;;;24.71;54.12
74627;BME280;63132;52.268;5.192;2023-09-07T06:14:00;101838.88;;;24.49;54.35
74627;BME280;63132;52.268;5.192;2023-09-07T06:16:25;101843.03;;;24.72;53.98
74627;BME280;63132;52.268;5.192;2023-09-07T06:18:51;101842.50;;;24.49;54.20
74627;BME280;63132;52.268;5.192;2023-09-07T06:21:16;101846.31;;;24.79;53.58
74627;BME280;63132;52.268;5.192;2023-09-07T06:23:41;101857.94;;;24.91;53.81
74627;BME280;63132;52.268;5.192;2023-09-07T06:26:07;101855.69;;;24.95;53.39
74627;BME280;63132;52.268;5.192;2023-09-07T06:28:32;101856.78;;;24.97;53.45
74627;BME280;63132;52.268;5.192;2023-09-07T06:30:58;101863.66;;;25.15;52.72
74627;BME280;63132;52.268;5.192;2023-09-07T06:33:24;101868.75;;;25.34;52.06
74627;BME280;63132;52.268;5.192;2023-09-07T06:35:49;101875.38;;;25.31;52.27
74627;BME280;63132;52.268;5.192;2023-09-07T06:38:14;101865.94;;;25.25;52.55
74627;BME280;63132;52.268;5.192;2023-09-07T06:40:40;101867.22;;;25.24;52.60
74627;BME280;63132;52.268;5.192;2023-09-07T06:43:05;101867.41;;;25.21;52.39
74627;BME280;63132;52.268;5.192;2023-09-07T06:45:36;101864.72;;;25.17;52.62
74627;BME280;63132;52.268;5.192;2023-09-07T06:48:03;101868.84;;;25.40;52.26
74627;BME280;63132;52.268;5.192;2023-09-07T06:50:28;101872.34;;;25.59;51.32
74627;BME280;63132;52.268;5.192;2023-09-07T06:52:53;101870.59;;;25.61;51.89
74627;BME280;63132;52.268;5.192;2023-09-07T06:55:19;101871.09;;;25.36;52.58
74627;BME280;63132;52.268;5.192;2023-09-07T06:57:45;101872.78;;;25.43;52.25
74627;BME280;63132;52.268;5.192;2023-09-07T07:00:11;101866.09;;;25.79;51.30
74627;BME280;63132;52.268;5.192;2023-09-07T07:02:37;101880.03;;;25.44;52.23
74627;BME280;63132;52.268;5.192;2023-09-07T07:05:02;101874.97;;;25.48;52.19
74627;BME280;63132;52.268;5.192;2023-09-07T07:07:30;101882.84;;;25.44;51.67
74627;BME280;63132;52.268;5.192;2023-09-07T07:09:55;101875.06;;;25.53;51.72
74627;BME280;63132;52.268;5.192;2023-09-07T07:12:21;101876.03;;;25.74;51.29
74627;BME280;63132;52.268;5.192;2023-09-07T07:14:46;101872.41;;;26.12;50.94
74627;BME280;63132;52.268;5.192;2023-09-07T07:17:11;101873.97;;;26.13;50.09
74627;BME280;63132;52.268;5.192;2023-09-07T07:19:37;101876.28;;;25.85;50.48
74627;BME280;63132;52.268;5.192;2023-09-07T07:22:02;101869.66;;;26.18;49.94
74627;BME280;63132;52.268;5.192;2023-09-07T07:24:28;101876.94;;;26.48;49.04
74627;BME280;63132;52.268;5.192;2023-09-07T07:26:53;101881.59;;;26.22;49.73
74627;BME280;63132;52.268;5.192;2023-09-07T07:29:18;101873.59;;;26.65;49.49
74627;BME280;63132;52.268;5.192;2023-09-07T07:31:44;101875.16;;;26.36;49.41
74627;BME280;63132;52.268;5.192;2023-09-07T07:34:09;101878.78;;;26.52;49.87
74627;BME280;63132;52.268;5.192;2023-09-07T07:36:35;101884.19;;;26.64;49.38
74627;BME280;63132;52.268;5.192;2023-09-07T07:39:01;101883.78;;;26.71;49.44
74627;BME280;63132;52.268;5.192;2023-09-07T07:41:26;101870.38;;;26.72;49.25
74627;BME280;63132;52.268;5.192;2023-09-07T07:43:52;101878.88;;;26.87;49.23
74627;BME280;63132;52.268;5.192;2023-09-07T07:46:17;101869.03;;;27.02;48.83
74627;BME280;63132;52.268;5.192;2023-09-07T07:48:44;101875.13;;;26.95;49.22
74627;BME280;63132;52.268;5.192;2023-09-07T07:51:10;101864.78;;;26.77;48.98
74627;BME280;63132;52.268;5.192;2023-09-07T07:53:35;101862.59;;;26.87;48.90
74627;BME280;63132;52.268;5.192;2023-09-07T07:56:00;101855.94;;;27.25;47.59
74627;BME280;63132;52.268;5.192;2023-09-07T07:58:26;101855.88;;;27.20;48.32
74627;BME280;63132;52.268;5.192;2023-09-07T08:00:51;101850.31;;;27.31;47.98
74627;BME280;63132;52.268;5.192;2023-09-07T08:03:17;101860.59;;;27.43;47.19
74627;BME280;63132;52.268;5.192;2023-09-07T08:05:42;101857.38;;;27.36;47.68
74627;BME280;63132;52.268;5.192;2023-09-07T08:08:08;101862.16;;;27.44;48.21
74627;BME280;63132;52.268;5.192;2023-09-07T08:10:37;101860.56;;;27.64;47.32
74627;BME280;63132;52.268;5.192;2023-09-07T08:13:03;101861.72;;;27.51;47.81
74627;BME280;63132;52.268;5.192;2023-09-07T08:15:32;101848.91;;;27.82;47.20
74627;BME280;63132;52.268;5.192;2023-09-07T08:17:57;101847.81;;;28.00;46.34
74627;BME280;63132;52.268;5.192;2023-09-07T08:20:25;101846.97;;;27.94;47.08
74627;BME280;63132;52.268;5.192;2023-09-07T08:22:50;101847.84;;;27.79;46.77
74627;BME280;63132;52.268;5.192;2023-09-07T08:25:18;101841.53;;;27.70;47.24
74627;BME280;63132;52.268;5.192;2023-09-07T08:27:43;101839.03;;;28.03;46.74
74627;BME280;63132;52.268;5.192;2023-09-07T08:30:11;101836.16;;;28.24;46.08
74627;BME280;63132;52.268;5.192;2023-09-07T08:32:37;101832.75;;;27.53;46.69
74627;BME280;63132;52.268;5.192;2023-09-07T08:35:04;101831.72;;;28.23;45.45
74627;BME280;63132;52.268;5.192;2023-09-07T08:37:31;101836.38;;;27.94;46.68
74627;BME280;63132;52.268;5.192;2023-09-07T08:39:59;101834.50;;;28.43;45.92
74627;BME280;63132;52.268;5.192;2023-09-07T08:42:25;101827.91;;;28.57;45.53
74627;BME280;63132;52.268;5.192;2023-09-07T08:44:51;101834.97;;;28.67;45.45
74627;BME280;63132;52.268;5.192;2023-09-07T08:47:18;101824.38;;;28.74;45.33
74627;BME280;63132;52.268;5.192;2023-09-07T08:49:46;101834.63;;;28.60;45.48
74627;BME280;63132;52.268;5.192;2023-09-07T08:52:14;101830.78;;;28.63;45.14
74627;BME280;63132;52.268;5.192;2023-09-07T08:54:41;101830.94;;;28.48;45.81
74627;BME280;63132;52.268;5.192;2023-09-07T08:57:08;101825.78;;;28.89;44.62
74627;BME280;63132;52.268;5.192;2023-09-07T08:59:35;101833.94;;;29.02;44.54
74627;BME280;63132;52.268;5.192;2023-09-07T09:02:01;101827.19;;;29.00;43.51
74627;BME280;63132;52.268;5.192;2023-09-07T09:04:30;101824.69;;;28.76;44.55
74627;BME280;63132;52.268;5.192;2023-09-07T09:06:56;101820.53;;;28.77;44.88
74627;BME280;63132;52.268;5.192;2023-09-07T09:09:23;101816.59;;;29.11;44.35
74627;BME280;63132;52.268;5.192;2023-09-07T09:11:50;101812.47;;;29.18;43.21
74627;BME280;63132;52.268;5.192;2023-09-07T09:14:18;101814.91;;;29.42;43.09
74627;BME280;63132;52.268;5.192;2023-09-07T09:16:51;101814.63;;;29.34;42.83
74627;BME280;63132;52.268;5.192;2023-09-07T09:19:16;101818.38;;;29.52;43.15
74627;BME280;63132;52.268;5.192;2023-09-07T09:21:44;101822.06;;;29.74;42.05
74627;BME280;63132;52.268;5.192;2023-09-07T09:24:10;101815.84;;;29.87;41.77
74627;BME280;63132;52.268;5.192;2023-09-07T09:26:39;101813.28;;;29.89;42.24
74627;BME280;63132;52.268;5.192;2023-09-07T09:29:04;101803.59;;;29.53;42.30
74627;BME280;63132;52.268;5.192;2023-09-07T09:31:30;101809.56;;;29.61;42.12
74627;BME280;63132;52.268;5.192;2023-09-07T09:33:56;101808.09;;;29.99;41.53
74627;BME280;63132;52.268;5.192;2023-09-07T09:36:22;101807.84;;;30.08;41.57
74627;BME280;63132;52.268;5.192;2023-09-07T09:38:51;101801.66;;;30.38;41.02
74627;BME280;63132;52.268;5.192;2023-09-07T09:41:19;101804.72;;;30.00;42.08
74627;BME280;63132;52.268;5.192;2023-09-07T09:43:46;101801.31;;;29.79;41.42
74627;BME280;63132;52.268;5.192;2023-09-07T09:46:15;101809.63;;;29.83;41.95
74627;BME280;63132;52.268;5.192;2023-09-07T09:48:42;101809.91;;;29.91;41.79
74627;BME280;63132;52.268;5.192;2023-09-07T09:51:07;101799.75;;;29.84;42.60
74627;BME280;63132;52.268;5.192;2023-09-07T09:53:33;101796.19;;;30.34;42.08
74627;BME280;63132;52.268;5.192;2023-09-07T09:55:59;101802.41;;;30.16;40.77
74627;BME280;63132;52.268;5.192;2023-09-07T09:58:25;101800.09;;;30.25;41.01
74627;BME280;63132;52.268;5.192;2023-09-07T10:00:54;101801.38;;;30.30;39.86
74627;BME280;63132;52.268;5.192;2023-09-07T10:03:33;101809.16;;;30.46;40.43
74627;BME280;63132;52.268;5.192;2023-09-07T10:06:18;101796.97;;;30.51;39.40
74627;BME280;63132;52.268;5.192;2023-09-07T10:08:58;101789.78;;;31.20;39.17
74627;BME280;63132;52.268;5.192;2023-09-07T10:11:29;101783.75;;;31.34;39.29
74627;BME280;63132;52.268;5.192;2023-09-07T10:14:01;101792.28;;;30.48;39.73
74627;BME280;63132;52.268;5.192;2023-09-07T10:16:28;101793.03;;;30.82;39.20
74627;BME280;63132;52.268;5.192;2023-09-07T10:18:54;101786.69;;;31.18;39.08
74627;BME280;63132;52.268;5.192;2023-09-07T10:21:23;101788.72;;;31.28;38.78
74627;BME280;63132;52.268;5.192;2023-09-07T10:23:51;101790.03;;;31.27;39.03
74627;BME280;63132;52.268;5.192;2023-09-07T10:26:18;101783.97;;;31.48;38.34
74627;BME280;63132;52.268;5.192;2023-09-07T10:28:46;101780.84;;;31.51;38.87
74627;BME280;63132;52.268;5.192;2023-09-07T10:31:17;101779.00;;;31.48;38.79
74627;BME280;63132;52.268;5.192;2023-09-07T10:33:43;101788.94;;;31.41;37.74
74627;BME280;63132;52.268;5.192;2023-09-07T10:36:22;101786.69;;;31.29;39.10
74627;BME280;63132;52.268;5.192;2023-09-07T10:38:48;101774.47;;;31.69;37.34
74627;BME280;63132;52.268;5.192;2023-09-07T10:41:14;101786.69;;;31.23;37.24
74627;BME280;63132;52.268;5.192;2023-09-07T10:43:50;101783.72;;;31.46;37.76
74627;BME280;63132;52.268;5.192;2023-09-07T10:46:20;101776.75;;;31.82;36.56
74627;BME280;63132;52.268;5.192;2023-09-07T10:48:49;101781.97;;;31.78;36.06
74627;BME280;63132;52.268;5.192;2023-09-07T10:51:15;101767.66;;;32.14;35.95
74627;BME280;63132;52.268;5.192;2023-09-07T10:53:40;101786.31;;;31.96;37.07
74627;BME280;63132;52.268;5.192;2023-09-07T10:56:06;101782.69;;;31.90;36.46
74627;BME280;63132;52.268;5.192;2023-09-07T10:58:36;101776.94;;;32.56;34.95
74627;BME280;63132;52.268;5.192;2023-09-07T11:01:06;101769.91;;;32.57;34.39
74627;BME280;63132;52.268;5.192;2023-09-07T11:03:32;101769.00;;;32.67;34.41
74627;BME280;63132;52.268;5.192;2023-09-07T11:06:06;101773.97;;;32.91;34.31
74627;BME280;63132;52.268;5.192;2023-09-07T11:08:34;101762.81;;;33.06;34.27
74627;BME280;63132;52.268;5.192;2023-09-07T11:11:02;101761.78;;;32.85;35.27
74627;BME280;63132;52.268;5.192;2023-09-07T11:13:28;101752.22;;;33.01;34.27
74627;BME280;63132;52.268;5.192;2023-09-07T11:15:55;101762.13;;;33.00;34.47
74627;BME280;63132;52.268;5.192;2023-09-07T11:18:22;101759.19;;;33.06;34.44
74627;BME280;63132;52.268;5.192;2023-09-07T11:20:48;101758.06;;;32.90;34.50
74627;BME280;63132;52.268;5.192;2023-09-07T11:23:14;101754.19;;;32.63;35.58
74627;BME280;63132;52.268;5.192;2023-09-07T11:25:39;101755.06;;;33.20;34.34
74627;BME280;63132;52.268;5.192;2023-09-07T11:28:06;101750.09;;;33.45;34.43
74627;BME280;63132;52.268;5.192;2023-09-07T11:30:33;101744.38;;;33.58;33.94
74627;BME280;63132;52.268;5.192;2023-09-07T11:33:05;101745.63;;;33.25;34.28
74627;BME280;63132;52.268;5.192;2023-09-07T11:35:32;101745.56;;;33.50;33.26
74627;BME280;63132;52.268;5.192;2023-09-07T11:38:02;101745.91;;;33.03;33.54
74627;BME280;63132;52.268;5.192;2023-09-07T11:40:30;101735.03;;;33.39;32.97
74627;BME280;63132;52.268;5.192;2023-09-07T11:42:55;101739.56;;;33.29;33.95
74627;BME280;63132;52.268;5.192;2023-09-07T11:45:20;101734.84;;;33.50;33.21
74627;BME280;63132;52.268;5.192;2023-09-07T11:47:46;101734.75;;;33.18;33.04
74627;BME280;63132;52.268;5.192;2023-09-07T11:50:12;101735.13;;;32.90;31.89
74627;BME280;63132;52.268;5.192;2023-09-07T11:52:37;101736.81;;;32.99;31.92
74627;BME280;63132;52.268;5.192;2023-09-07T11:55:03;101721.66;;;33.42;32.29
74627;BME280;63132;52.268;5.192;2023-09-07T11:57:30;101735.91;;;33.28;32.37
74627;BME280;63132;52.268;5.192;2023-09-07T11:59:56;101725.25;;;33.48;31.55
74627;BME280;63132;52.268;5.192;2023-09-07T12:02:21;101728.94;;;33.24;31.85
74627;BME280;63132;52.268;5.192;2023-09-07T12:04:47;101730.31;;;33.74;31.36
74627;BME280;63132;52.268;5.192;2023-09-07T12:07:14;101725.38;;;33.55;31.89
74627;BME280;63132;52.268;5.192;2023-09-07T12:09:39;101727.22;;;33.72;31.62
74627;BME280;63132;52.268;5.192;2023-09-07T12:12:05;101727.22;;;33.91;31.11
74627;BME280;63132;52.268;5.192;2023-09-07T12:14:31;101714.06;;;33.44;31.75
74627;BME280;63132;52.268;5.192;2023-09-07T12:16:56;101725.66;;;33.71;32.08
74627;BME280;63132;52.268;5.192;2023-09-07T12:19:21;101718.88;;;33.55;31.55
74627;BME280;63132;52.268;5.192;2023-09-07T12:21:47;101714.66;;;33.75;31.85
74627;BME280;63132;52.268;5.192;2023-09-07T12:24:12;101717.13;;;33.65;31.88
74627;BME280;63132;52.268;5.192;2023-09-07T12:26:37;101714.13;;;33.57;31.51
74627;BME280;63132;52.268;5.192;2023-09-07T12:29:06;101717.09;;;33.84;31.75
74627;BME280;63132;52.268;5.192;2023-09-07T12:31:33;101703.81;;;33.81;31.38
74627;BME280;63132;52.268;5.192;2023-09-07T12:33:59;101706.22;;;33.96;30.72
74627;BME280;63132;52.268;5.192;2023-09-07T12:36:24;101707.16;;;33.53;31.18
74627;BME280;63132;52.268;5.192;2023-09-07T12:38:54;101701.78;;;33.44;31.71
74627;BME280;63132;52.268;5.192;2023-09-07T12:41:19;101702.94;;;33.86;30.94
74627;BME280;63132;52.268;5.192;2023-09-07T12:43:46;101704.00;;;33.70;32.11
74627;BME280;63132;52.268;5.192;2023-09-07T12:46:12;101704.72;;;33.89;30.25